sensor_id;sensor_type;location;lat;lon;timestamp;pressure;altitude;pressure_sealevel;temperature;humidity
15674;BME280;7937;48.090;16.212;2024-01-07T00:01:28;96682.41;;;1.37;100.00
15674;BME280;7937;48.090;16.212;2024-01-07T00:04:31;96680.00;;;1.36;100.00
15674;BME280;7937;48.090;16.212;2024-01-07T00:07:36;96680.22;;;1.34;100.00
15674;BME280;7937;48.090;16.212;2024-01-07T00:10:38;96670.94;;;1.32;100.00
15674;BME280;7937;48.090;16.212;2024-01-07T00:13:41;96674.56;;;1.31;100.00
15674;BME280;7937;48.090;16.212;2024-01-07T00:16:43;96668.72;;;1.28;100.00
15674;BME280;7937;48.090;16.212;2024-01-07T00:19:46;96689.50;;;1.30;100.00
15674;BME280;7937;48.090;16.212;2024-01-07T00:22:48;96686.88;;;1.30;100.00
15674;BME280;7937;48.090;16.212;2024-01-07T00:25:51;96681.63;;;1.30;100.00
15674;BME280;7937;48.090;16.212;2024-01-07T00:28:53;96688.91;;;1.28;100.00
15674;BME280;7937;48.090;16.212;2024-01-07T00:31:56;96668.38;;;1.18;100.00
15674;BME280;7937;48.090;16.212;2024-01-07T00:34:59;96683.66;;;1.28;100.00
15674;BME280;7937;48.090;16.212;2024-01-07T00:38:06;96683.28;;;1.24;100.00
15674;BME280;7937;48.090;16.212;2024-01-07T00:41:08;96677.41;;;1.22;100.00
15674;BME280;7937;48.090;16.212;2024-01-07T00:44:11;96679.09;;;1.10;100.00
15674;BME280;7937;48.090;16.212;2024-01-07T00:47:13;96685.09;;;1.17;100.00
15674;BME280;7937;48.090;16.212;2024-01-07T00:50:19;96680.91;;;1.10;100.00
15674;BME280;7937;48.090;16.212;2024-01-07T00:53:22;96694.81;;;1.10;100.00
15674;BME280;7937;48.090;16.212;2024-01-07T00:56:27;96701.88;;;1.10;100.00
15674;BME280;7937;48.090;16.212;2024-01-07T00:59:30;96710.75;;;1.15;100.00
15674;BME280;7937;48.090;16.212;2024-01-07T01:02:33;96724.09;;;1.00;100.00
15674;BME280;7937;48.090;16.212;2024-01-07T01:05:38;96714.41;;;1.01;100.00
15674;BME280;7937;48.090;16.212;2024-01-07T01:08:41;96719.66;;;1.01;100.00
15674;BME280;7937;48.090;16.212;2024-01-07T01:11:45;96713.59;;;1.00;100.00
15674;BME280;7937;48.090;16.212;2024-01-07T01:14:50;96713.41;;;0.95;100.00
15674;BME280;7937;48.090;16.212;2024-01-07T01:17:54;96718.66;;;0.95;100.00
15674;BME280;7937;48.090;16.212;2024-01-07T01:20:57;96711.78;;;0.88;100.00
15674;BME280;7937;48.090;16.212;2024-01-07T01:23:59;96721.09;;;0.77;100.00
15674;BME280;7937;48.090;16.212;2024-01-07T01:27:02;96725.34;;;0.71;100.00
15674;BME280;7937;48.090;16.212;2024-01-07T01:30:05;96720.09;;;0.71;100.00
15674;BME280;7937;48.090;16.212;2024-01-07T01:33:08;96723.72;;;0.70;100.00
15674;BME280;7937;48.090;16.212;2024-01-07T01:36:31;96725.34;;;0.65;100.00
15674;BME280;7937;48.090;16.212;2024-01-07T01:39:34;96723.72;;;0.64;100.00
15674;BME280;7937;48.090;16.212;2024-01-07T01:42:37;96714.25;;;0.63;100.00
15674;BME280;7937;48.090;16.212;2024-01-07T01:45:39;96718.69;;;0.62;100.00
15674;BME280;7937;48.090;16.212;2024-01-07T01:48:42;96712.03;;;0.60;100.00
15674;BME280;7937;48.090;16.212;2024-01-07T01:51:45;96706.00;;;0.59;100.00
15674;BME280;7937;48.090;16.212;2024-01-07T01:54:49;96699.75;;;0.60;100.00
15674;BME280;7937;48.090;16.212;2024-01-07T01:57:52;96703.16;;;0.61;100.00
15674;BME280;7937;48.090;16.212;2024-01-07T02:00:56;96705.00;;;0.60;100.00
15674;BME280;7937;48.090;16.212;2024-01-07T02:03:59;96706.81;;;0.60;100.00
15674;BME280;7937;48.090;16.212;2024-01-07T02:07:02;96699.53;;;0.62;100.00
15674;BME280;7937;48.090;16.212;2024-01-07T02:10:05;96694.28;;;0.62;100.00
15674;BME280;7937;48.090;16.212;2024-01-07T02:13:08;96689.84;;;0.62;100.00
15674;BME280;7937;48.090;16.212;2024-01-07T02:16:11;96688.66;;;0.65;100.00
15674;BME280;7937;48.090;16.212;2024-01-07T02:19:13;96693.28;;;0.63;100.00
15674;BME280;7937;48.090;16.212;2024-01-07T02:22:17;96704.16;;;0.66;100.00
15674;BME280;7937;48.090;16.212;2024-01-07T02:25:20;96709.00;;;0.63;100.00
15674;BME280;7937;48.090;16.212;2024-01-07T02:28:23;96703.38;;;0.59;100.00
15674;BME280;7937;48.090;16.212;2024-01-07T02:31:25;96710.81;;;0.69;100.00
15674;BME280;7937;48.090;16.212;2024-01-07T02:34:28;96718.91;;;0.61;100.00
15674;BME280;7937;48.090;16.212;2024-01-07T02:37:30;96719.72;;;0.55;100.00
15674;BME280;7937;48.090;16.212;2024-01-07T02:40:33;96718.47;;;0.57;100.00
15674;BME280;7937;48.090;16.212;2024-01-07T02:43:35;96719.91;;;0.60;100.00
15674;BME280;7937;48.090;16.212;2024-01-07T02:46:39;96727.34;;;0.56;100.00
15674;BME280;7937;48.090;16.212;2024-01-07T02:49:41;96731.97;;;0.47;100.00
15674;BME280;7937;48.090;16.212;2024-01-07T02:52:44;96724.53;;;0.51;100.00
15674;BME280;7937;48.090;16.212;2024-01-07T02:55:46;96726.53;;;0.42;100.00
15674;BME280;7937;48.090;16.212;2024-01-07T02:58:48;96723.72;;;0.44;100.00
15674;BME280;7937;48.090;16.212;2024-01-07T03:01:51;96726.53;;;0.42;100.00
15674;BME280;7937;48.090;16.212;2024-01-07T03:04:53;96668.72;;;0.11;100.00
15674;BME280;7937;48.090;16.212;2024-01-07T03:07:56;96723.13;;;0.42;100.00
15674;BME280;7937;48.090;16.212;2024-01-07T03:11:04;96723.31;;;0.34;100.00
15674;BME280;7937;48.090;16.212;2024-01-07T03:14:07;96732.38;;;0.38;100.00
15674;BME280;7937;48.090;16.212;2024-01-07T03:17:10;96729.75;;;0.31;100.00
15674;BME280;7937;48.090;16.212;2024-01-07T03:20:13;96736.03;;;0.30;100.00
15674;BME280;7937;48.090;16.212;2024-01-07T03:23:15;96735.41;;;0.28;100.00
15674;BME280;7937;48.090;16.212;2024-01-07T03:26:19;96731.38;;;0.32;100.00
15674;BME280;7937;48.090;16.212;2024-01-07T03:29:22;96733.56;;;0.29;100.00
15674;BME280;7937;48.090;16.212;2024-01-07T03:32:24;96731.16;;;0.27;100.00
15674;BME280;7937;48.090;16.212;2024-01-07T03:35:27;96724.94;;;0.35;100.00
15674;BME280;7937;48.090;16.212;2024-01-07T03:38:30;96723.72;;;0.37;100.00
15674;BME280;7937;48.090;16.212;2024-01-07T03:41:33;96713.25;;;0.37;100.00
15674;BME280;7937;48.090;16.212;2024-01-07T03:44:35;96728.97;;;0.37;100.00
15674;BME280;7937;48.090;16.212;2024-01-07T03:47:38;96724.75;;;0.30;100.00
15674;BME280;7937;48.090;16.212;2024-01-07T03:50:42;96718.50;;;0.31;100.00
15674;BME280;7937;48.090;16.212;2024-01-07T03:53:44;96722.91;;;0.23;100.00
15674;BME280;7937;48.090;16.212;2024-01-07T03:56:47;96730.38;;;0.20;100.00
15674;BME280;7937;48.090;16.212;2024-01-07T03:59:50;96731.16;;;0.27;100.00
15674;BME280;7937;48.090;16.212;2024-01-07T04:02:52;96726.09;;;0.19;100.00
15674;BME280;7937;48.090;16.212;2024-01-07T04:05:54;96740.44;;;0.16;100.00
15674;BME280;7937;48.090;16.212;2024-01-07T04:08:57;96730.75;;;0.23;100.00
15674;BME280;7937;48.090;16.212;2024-01-07T04:12:00;96727.72;;;0.07;100.00
15674;BME280;7937;48.090;16.212;2024-01-07T04:15:03;96741.81;;;0.12;100.00
15674;BME280;7937;48.090;16.212;2024-01-07T04:18:05;96740.22;;;0.11;100.00
15674;BME280;7937;48.090;16.212;2024-01-07T04:21:11;96749.47;;;0.07;100.00
15674;BME280;7937;48.090;16.212;2024-01-07T04:24:15;96749.69;;;0.12;100.00
15674;BME280;7937;48.090;16.212;2024-01-07T04:27:18;96767.78;;;0.07;100.00
15674;BME280;7937;48.090;16.212;2024-01-07T04:30:20;96761.13;;;0.05;100.00
15674;BME280;7937;48.090;16.212;2024-01-07T04:33:23;96765.38;;;0.06;100.00
15674;BME280;7937;48.090;16.212;2024-01-07T04:36:25;96777.03;;;0.03;100.00
15674;BME280;7937;48.090;16.212;2024-01-07T04:39:27;96770.41;;;0.01;100.00
15674;BME280;7937;48.090;16.212;2024-01-07T04:42:30;96771.59;;;-0.02;100.00
15674;BME280;7937;48.090;16.212;2024-01-07T04:45:32;96778.22;;;-0.06;100.00
15674;BME280;7937;48.090;16.212;2024-01-07T04:48:35;96774.00;;;-0.01;100.00
15674;BME280;7937;48.090;16.212;2024-01-07T04:51:37;96766.56;;;0.10;100.00
15674;BME280;7937;48.090;16.212;2024-01-07T04:54:40;96770.00;;;-0.03;100.00
15674;BME280;7937;48.090;16.212;2024-01-07T04:57:42;96772.59;;;-0.03;100.00
15674;BME280;7937;48.090;16.212;2024-01-07T05:00:44;96778.03;;;-0.05;100.00
15674;BME280;7937;48.090;16.212;2024-01-07T05:03:47;96782.44;;;-0.12;100.00
15674;BME280;7937;48.090;16.212;2024-01-07T05:06:49;96778.19;;;-0.19;100.00
15674;BME280;7937;48.090;16.212;2024-01-07T05:09:52;96774.16;;;-0.22;100.00
15674;BME280;7937;48.090;16.212;2024-01-07T05:12:55;96801.56;;;-0.11;100.00
15674;BME280;7937;48.090;16.212;2024-01-07T05:15:58;96804.97;;;-0.17;100.00
15674;BME280;7937;48.090;16.212;2024-01-07T05:19:00;96810.78;;;-0.22;100.00
15674;BME280;7937;48.090;16.212;2024-01-07T05:22:03;96800.91;;;-0.27;100.00
15674;BME280;7937;48.090;16.212;2024-01-07T05:25:05;96791.06;;;-0.24;100.00
15674;BME280;7937;48.090;16.212;2024-01-07T05:28:08;96802.50;;;-0.26;100.00
15674;BME280;7937;48.090;16.212;2024-01-07T05:31:17;96781.56;;;-0.32;100.00
15674;BME280;7937;48.090;16.212;2024-01-07T05:34:20;96775.53;;;-0.33;100.00
15674;BME280;7937;48.090;16.212;2024-01-07T05:37:24;96801.72;;;-0.26;100.00
15674;BME280;7937;48.090;16.212;2024-01-07T05:40:26;96805.72;;;-0.30;100.00
15674;BME280;7937;48.090;16.212;2024-01-07T05:43:28;96796.03;;;-0.36;100.00
15674;BME280;7937;48.090;16.212;2024-01-07T05:46:31;96812.97;;;-0.32;100.00
15674;BME280;7937;48.090;16.212;2024-01-07T05:49:33;96810.19;;;-0.24;100.00
15674;BME280;7937;48.090;16.212;2024-01-07T05:52:36;96804.91;;;-0.31;100.00
15674;BME280;7937;48.090;16.212;2024-01-07T05:55:38;96811.38;;;-0.27;100.00
15674;BME280;7937;48.090;16.212;2024-01-07T05:58:42;96825.25;;;-0.33;100.00
15674;BME280;7937;48.090;16.212;2024-01-07T06:01:45;96823.00;;;-0.36;100.00
15674;BME280;7937;48.090;16.212;2024-01-07T06:04:47;96820.59;;;-0.37;100.00
15674;BME280;7937;48.090;16.212;2024-01-07T06:07:50;96835.84;;;-0.41;100.00
15674;BME280;7937;48.090;16.212;2024-01-07T06:10:52;96829.56;;;-0.53;100.00
15674;BME280;7937;48.090;16.212;2024-01-07T06:13:54;96842.25;;;-0.50;100.00
15674;BME280;7937;48.090;16.212;2024-01-07T06:16:57;96843.25;;;-0.51;100.00
15674;BME280;7937;48.090;16.212;2024-01-07T06:19:59;96845.06;;;-0.52;100.00
15674;BME280;7937;48.090;16.212;2024-01-07T06:23:02;96844.03;;;-0.50;100.00
15674;BME280;7937;48.090;16.212;2024-01-07T06:26:04;96849.69;;;-0.54;100.00
15674;BME280;7937;48.090;16.212;2024-01-07T06:29:07;96857.69;;;-0.55;100.00
15674;BME280;7937;48.090;16.212;2024-01-07T06:32:12;96858.47;;;-0.61;100.00
15674;BME280;7937;48.090;16.212;2024-01-07T06:35:15;96861.28;;;-0.63;100.00
15674;BME280;7937;48.090;16.212;2024-01-07T06:38:17;96857.66;;;-0.62;100.00
15674;BME280;7937;48.090;16.212;2024-01-07T06:41:20;96841.84;;;-0.82;100.00
15674;BME280;7937;48.090;16.212;2024-01-07T06:44:22;96864.84;;;-0.70;100.00
15674;BME280;7937;48.090;16.212;2024-01-07T06:47:24;96866.66;;;-0.71;100.00
15674;BME280;7937;48.090;16.212;2024-01-07T06:50:26;96858.34;;;-0.81;100.00
15674;BME280;7937;48.090;16.212;2024-01-07T06:53:28;96875.31;;;-0.70;100.00
15674;BME280;7937;48.090;16.212;2024-01-07T06:56:30;96873.69;;;-0.71;100.00
15674;BME280;7937;48.090;16.212;2024-01-07T06:59:32;96878.56;;;-0.68;100.00
15674;BME280;7937;48.090;16.212;2024-01-07T07:02:35;96871.44;;;-0.74;100.00
15674;BME280;7937;48.090;16.212;2024-01-07T07:05:37;96886.78;;;-0.71;100.00
15674;BME280;7937;48.090;16.212;2024-01-07T07:08:39;96884.34;;;-0.73;100.00
15674;BME280;7937;48.090;16.212;2024-01-07T07:11:42;96895.84;;;-0.67;100.00
15674;BME280;7937;48.090;16.212;2024-01-07T07:14:44;96893.03;;;-0.66;100.00
15674;BME280;7937;48.090;16.212;2024-01-07T07:17:47;96899.59;;;-0.76;100.00
15674;BME280;7937;48.090;16.212;2024-01-07T07:20:49;96917.47;;;-0.80;100.00
15674;BME280;7937;48.090;16.212;2024-01-07T07:23:51;96902.78;;;-0.81;100.00
15674;BME280;7937;48.090;16.212;2024-01-07T07:26:54;96918.91;;;-0.77;100.00
15674;BME280;7937;48.090;16.212;2024-01-07T07:29:56;96903.28;;;-0.71;100.00
15674;BME280;7937;48.090;16.212;2024-01-07T07:32:58;96916.91;;;-0.75;100.00
15674;BME280;7937;48.090;16.212;2024-01-07T07:36:01;96923.25;;;-0.85;100.00
15674;BME280;7937;48.090;16.212;2024-01-07T07:39:03;96935.09;;;-0.89;100.00
15674;BME280;7937;48.090;16.212;2024-01-07T07:42:05;96935.84;;;-0.95;100.00
15674;BME280;7937;48.090;16.212;2024-01-07T07:45:08;96925.09;;;-1.07;100.00
15674;BME280;7937;48.090;16.212;2024-01-07T07:48:10;96903.25;;;-1.20;100.00
15674;BME280;7937;48.090;16.212;2024-01-07T07:51:13;96943.63;;;-1.01;100.00
15674;BME280;7937;48.090;16.212;2024-01-07T07:54:15;96944.88;;;-0.97;100.00
15674;BME280;7937;48.090;16.212;2024-01-07T07:57:17;96948.91;;;-0.95;100.00
15674;BME280;7937;48.090;16.212;2024-01-07T08:00:22;96947.03;;;-0.80;100.00
15674;BME280;7937;48.090;16.212;2024-01-07T08:03:25;96946.75;;;-0.91;100.00
15674;BME280;7937;48.090;16.212;2024-01-07T08:06:27;96954.16;;;-0.95;100.00
15674;BME280;7937;48.090;16.212;2024-01-07T08:09:30;96954.16;;;-0.95;100.00
15674;BME280;7937;48.090;16.212;2024-01-07T08:12:32;96959.38;;;-0.95;100.00
15674;BME280;7937;48.090;16.212;2024-01-07T08:15:35;96962.47;;;-0.85;100.00
15674;BME280;7937;48.090;16.212;2024-01-07T08:18:39;96974.44;;;-0.97;100.00
15674;BME280;7937;48.090;16.212;2024-01-07T08:21:42;96968.97;;;-1.02;100.00
15674;BME280;7937;48.090;16.212;2024-01-07T08:24:46;96970.94;;;-1.04;100.00
15674;BME280;7937;48.090;16.212;2024-01-07T08:27:49;96979.19;;;-1.07;100.00
15674;BME280;7937;48.090;16.212;2024-01-07T08:30:53;96983.16;;;-1.11;100.00
15674;BME280;7937;48.090;16.212;2024-01-07T08:33:56;96940.69;;;-1.35;100.00
15674;BME280;7937;48.090;16.212;2024-01-07T08:36:58;96977.91;;;-1.11;100.00
15674;BME280;7937;48.090;16.212;2024-01-07T08:40:01;96981.50;;;-0.97;100.00
15674;BME280;7937;48.090;16.212;2024-01-07T08:43:03;96992.09;;;-0.99;100.00
15674;BME280;7937;48.090;16.212;2024-01-07T08:46:06;97003.31;;;-1.05;100.00
15674;BME280;7937;48.090;16.212;2024-01-07T08:49:09;97016.13;;;-1.10;100.00
15674;BME280;7937;48.090;16.212;2024-01-07T08:52:12;97018.69;;;-1.17;100.00
15674;BME280;7937;48.090;16.212;2024-01-07T08:55:14;97008.25;;;-1.32;100.00
15674;BME280;7937;48.090;16.212;2024-01-07T08:58:17;97020.56;;;-1.25;100.00
15674;BME280;7937;48.090;16.212;2024-01-07T09:01:20;97021.63;;;-1.20;100.00
15674;BME280;7937;48.090;16.212;2024-01-07T09:04:22;97017.69;;;-1.31;100.00
15674;BME280;7937;48.090;16.212;2024-01-07T09:07:25;97031.22;;;-1.27;100.00
15674;BME280;7937;48.090;16.212;2024-01-07T09:10:27;97035.81;;;-1.29;100.00
15674;BME280;7937;48.090;16.212;2024-01-07T09:13:29;97029.59;;;-1.28;100.00
15674;BME280;7937;48.090;16.212;2024-01-07T09:16:32;97032.81;;;-1.11;100.00
15674;BME280;7937;48.090;16.212;2024-01-07T09:19:34;97020.66;;;-1.34;100.00
15674;BME280;7937;48.090;16.212;2024-01-07T09:22:37;97032.91;;;-1.19;100.00
15674;BME280;7937;48.090;16.212;2024-01-07T09:25:39;97023.34;;;-1.12;100.00
15674;BME280;7937;48.090;16.212;2024-01-07T09:28:41;97026.13;;;-1.14;100.00
15674;BME280;7937;48.090;16.212;2024-01-07T09:31:44;97027.94;;;-1.14;100.00
15674;BME280;7937;48.090;16.212;2024-01-07T09:34:47;97035.56;;;-0.98;100.00
15674;BME280;7937;48.090;16.212;2024-01-07T09:37:49;97033.06;;;-1.06;100.00
15674;BME280;7937;48.090;16.212;2024-01-07T09:40:52;97026.88;;;-1.20;100.00
15674;BME280;7937;48.090;16.212;2024-01-07T09:43:55;97023.53;;;-1.28;100.00
15674;BME280;7937;48.090;16.212;2024-01-07T09:46:59;97048.75;;;-1.06;100.00
15674;BME280;7937;48.090;16.212;2024-01-07T09:50:01;97055.88;;;-1.15;100.00
15674;BME280;7937;48.090;16.212;2024-01-07T09:53:04;97055.63;;;-1.20;100.00
15674;BME280;7937;48.090;16.212;2024-01-07T09:56:17;97043.75;;;-1.22;100.00
15674;BME280;7937;48.090;16.212;2024-01-07T09:59:23;97038.38;;;-1.14;100.00
15674;BME280;7937;48.090;16.212;2024-01-07T10:02:26;97033.72;;;-1.19;100.00
15674;BME280;7937;48.090;16.212;2024-01-07T10:05:28;97031.84;;;-1.25;100.00
15674;BME280;7937;48.090;16.212;2024-01-07T10:08:32;97033.97;;;-1.14;100.00
15674;BME280;7937;48.090;16.212;2024-01-07T10:11:34;97033.34;;;-1.16;100.00
15674;BME280;7937;48.090;16.212;2024-01-07T10:14:38;97028.22;;;-1.24;100.00
15674;BME280;7937;48.090;16.212;2024-01-07T10:17:41;97046.50;;;-1.24;100.00
15674;BME280;7937;48.090;16.212;2024-01-07T10:20:47;97041.28;;;-1.24;100.00
15674;BME280;7937;48.090;16.212;2024-01-07T10:23:50;97052.38;;;-1.22;100.00
15674;BME280;7937;48.090;16.212;2024-01-07T10:26:52;97050.19;;;-1.18;100.00
15674;BME280;7937;48.090;16.212;2024-01-07T10:29:58;97035.00;;;-1.30;100.00
15674;BME280;7937;48.090;16.212;2024-01-07T10:33:00;97040.88;;;-1.27;100.00
15674;BME280;7937;48.090;16.212;2024-01-07T10:36:05;97047.16;;;-1.22;100.00
15674;BME280;7937;48.090;16.212;2024-01-07T10:39:08;97058.69;;;-1.16;100.00
15674;BME280;7937;48.090;16.212;2024-01-07T10:42:12;97051.19;;;-1.19;100.00
15674;BME280;7937;48.090;16.212;2024-01-07T10:45:14;97055.63;;;-1.20;100.00
15674;BME280;7937;48.090;16.212;2024-01-07T10:48:17;97051.94;;;-1.25;100.00
15674;BME280;7937;48.090;16.212;2024-01-07T10:51:21;97051.06;;;-1.33;100.00
15674;BME280;7937;48.090;16.212;2024-01-07T10:54:28;97060.31;;;-1.30;100.00
15674;BME280;7937;48.090;16.212;2024-01-07T10:57:43;97044.19;;;-1.34;100.00
15674;BME280;7937;48.090;16.212;2024-01-07T11:00:47;97048.59;;;-1.19;100.00
15674;BME280;7937;48.090;16.212;2024-01-07T11:04:08;97046.97;;;-1.20;100.00
15674;BME280;7937;48.090;16.212;2024-01-07T11:07:32;97048.78;;;-1.36;100.00
15674;BME280;7937;48.090;16.212;2024-01-07T11:10:45;97023.75;;;-1.45;100.00
15674;BME280;7937;48.090;16.212;2024-01-07T11:13:54;97051.22;;;-1.34;100.00
15674;BME280;7937;48.090;16.212;2024-01-07T11:17:00;97046.66;;;-1.47;100.00
15674;BME280;7937;48.090;16.212;2024-01-07T11:20:05;97045.09;;;-1.41;100.00
15674;BME280;7937;48.090;16.212;2024-01-07T11:23:27;97045.47;;;-1.44;100.00
15674;BME280;7937;48.090;16.212;2024-01-07T11:26:32;97051.34;;;-1.42;100.00
15674;BME280;7937;48.090;16.212;2024-01-07T11:29:35;97041.78;;;-1.50;100.00
15674;BME280;7937;48.090;16.212;2024-01-07T11:32:39;97055.38;;;-1.54;100.00
15674;BME280;7937;48.090;16.212;2024-01-07T11:35:54;97051.59;;;-1.52;100.00
15674;BME280;7937;48.090;16.212;2024-01-07T11:38:59;97044.19;;;-1.48;100.00
15674;BME280;7937;48.090;16.212;2024-01-07T11:42:03;97049.69;;;-1.58;100.00
15674;BME280;7937;48.090;16.212;2024-01-07T11:45:05;97049.16;;;-1.53;100.00
15674;BME280;7937;48.090;16.212;2024-01-07T11:48:09;97041.16;;;-1.52;100.00
15674;BME280;7937;48.090;16.212;2024-01-07T11:51:11;97044.94;;;-1.54;100.00
15674;BME280;7937;48.090;16.212;2024-01-07T11:54:13;97042.31;;;-1.54;100.00
15674;BME280;7937;48.090;16.212;2024-01-07T11:57:16;97015.84;;;-1.51;100.00
15674;BME280;7937;48.090;16.212;2024-01-07T12:00:18;97049.53;;;-1.42;100.00
15674;BME280;7937;48.090;16.212;2024-01-07T12:03:20;97042.69;;;-1.43;100.00
15674;BME280;7937;48.090;16.212;2024-01-07T12:06:22;97045.00;;;-1.48;100.00
15674;BME280;7937;48.090;16.212;2024-01-07T12:09:25;97046.81;;;-1.48;100.00
15674;BME280;7937;48.090;16.212;2024-01-07T12:12:27;97046.66;;;-1.47;100.00
15674;BME280;7937;48.090;16.212;2024-01-07T12:15:30;97049.97;;;-1.53;100.00
15674;BME280;7937;48.090;16.212;2024-01-07T12:18:32;97047.72;;;-1.56;100.00
15674;BME280;7937;48.090;16.212;2024-01-07T12:21:34;97049.94;;;-1.38;100.00
15674;BME280;7937;48.090;16.212;2024-01-07T12:24:37;97017.56;;;-1.59;100.00
15674;BME280;7937;48.090;16.212;2024-01-07T12:27:41;97045.56;;;-1.52;100.00
15674;BME280;7937;48.090;16.212;2024-01-07T12:30:43;97056.38;;;-1.56;100.00
15674;BME280;7937;48.090;16.212;2024-01-07T12:33:47;97056.09;;;-1.61;100.00
15674;BME280;7937;48.090;16.212;2024-01-07T12:36:51;97045.94;;;-1.56;100.00
15674;BME280;7937;48.090;16.212;2024-01-07T12:39:57;97060.59;;;-1.54;100.00
15674;BME280;7937;48.090;16.212;2024-01-07T12:42:59;97056.56;;;-1.57;100.00
15674;BME280;7937;48.090;16.212;2024-01-07T12:46:02;97058.38;;;-1.58;100.00
15674;BME280;7937;48.090;16.212;2024-01-07T12:49:07;97071.97;;;-1.62;100.00
15674;BME280;7937;48.090;16.212;2024-01-07T12:52:09;97070.69;;;-1.66;100.00
15674;BME280;7937;48.090;16.212;2024-01-07T12:55:12;97057.78;;;-1.68;100.00
15674;BME280;7937;48.090;16.212;2024-01-07T12:58:14;97071.97;;;-1.62;100.00
15674;BME280;7937;48.090;16.212;2024-01-07T13:01:18;97075.00;;;-1.59;100.00
15674;BME280;7937;48.090;16.212;2024-01-07T13:04:21;97070.03;;;-1.68;100.00
15674;BME280;7937;48.090;16.212;2024-01-07T13:07:23;97068.81;;;-1.58;100.00
15674;BME280;7937;48.090;16.212;2024-01-07T13:10:25;97092.47;;;-1.59;100.00
15674;BME280;7937;48.090;16.212;2024-01-07T13:13:29;97086.19;;;-1.65;100.00
15674;BME280;7937;48.090;16.212;2024-01-07T13:16:31;97088.84;;;-1.73;100.00
15674;BME280;7937;48.090;16.212;2024-01-07T13:19:33;97087.97;;;-1.80;100.00
15674;BME280;7937;48.090;16.212;2024-01-07T13:22:36;97082.41;;;-1.77;100.00
15674;BME280;7937;48.090;16.212;2024-01-07T13:25:38;97081.75;;;-1.79;100.00
15674;BME280;7937;48.090;16.212;2024-01-07T13:28:40;97065.63;;;-1.83;100.00
15674;BME280;7937;48.090;16.212;2024-01-07T13:31:43;97089.56;;;-1.79;100.00
15674;BME280;7937;48.090;16.212;2024-01-07T13:34:45;97101.81;;;-1.79;100.00
15674;BME280;7937;48.090;16.212;2024-01-07T13:37:47;97109.47;;;-1.78;100.00
15674;BME280;7937;48.090;16.212;2024-01-07T13:40:50;97103.88;;;-1.90;100.00
15674;BME280;7937;48.090;16.212;2024-01-07T13:43:53;97108.78;;;-1.72;100.00
15674;BME280;7937;48.090;16.212;2024-01-07T13:46:57;97129.66;;;-1.72;100.00
15674;BME280;7937;48.090;16.212;2024-01-07T13:49:59;97117.31;;;-1.78;100.00
15674;BME280;7937;48.090;16.212;2024-01-07T13:53:01;97119.81;;;-1.85;100.00
15674;BME280;7937;48.090;16.212;2024-01-07T13:56:04;97127.03;;;-1.87;100.00
15674;BME280;7937;48.090;16.212;2024-01-07T13:59:08;97116.94;;;-1.90;100.00
15674;BME280;7937;48.090;16.212;2024-01-07T14:02:13;97130.25;;;-1.85;100.00
15674;BME280;7937;48.090;16.212;2024-01-07T14:05:21;97121.09;;;-1.80;100.00
15674;BME280;7937;48.090;16.212;2024-01-07T14:08:23;97112.44;;;-1.96;100.00
15674;BME280;7937;48.090;16.212;2024-01-07T14:11:25;97127.19;;;-1.88;100.00
15674;BME280;7937;48.090;16.212;2024-01-07T14:14:30;97124.78;;;-1.75;100.00
15674;BME280;7937;48.090;16.212;2024-01-07T14:17:32;97129.72;;;-1.80;100.00
15674;BME280;7937;48.090;16.212;2024-01-07T14:20:34;97130.06;;;-1.83;100.00
15674;BME280;7937;48.090;16.212;2024-01-07T14:23:36;97131.97;;;-1.92;100.00
15674;BME280;7937;48.090;16.212;2024-01-07T14:26:38;97137.75;;;-1.82;100.00
15674;BME280;7937;48.090;16.212;2024-01-07T14:29:40;97146.44;;;-1.89;100.00
15674;BME280;7937;48.090;16.212;2024-01-07T14:32:43;97150.88;;;-1.90;100.00
15674;BME280;7937;48.090;16.212;2024-01-07T14:35:46;97156.09;;;-1.90;100.00
15674;BME280;7937;48.090;16.212;2024-01-07T14:38:48;97149.53;;;-1.86;100.00
15674;BME280;7937;48.090;16.212;2024-01-07T14:41:50;97158.13;;;-1.77;100.00
15674;BME280;7937;48.090;16.212;2024-01-07T14:44:53;97166.63;;;-1.83;100.00
15674;BME280;7937;48.090;16.212;2024-01-07T14:47:55;97154.94;;;-1.87;100.00
15674;BME280;7937;48.090;16.212;2024-01-07T14:50:57;97160.16;;;-1.87;100.00
15674;BME280;7937;48.090;16.212;2024-01-07T14:53:59;97162.00;;;-1.96;100.00
15674;BME280;7937;48.090;16.212;2024-01-07T14:57:02;97166.47;;;-1.82;100.00
15674;BME280;7937;48.090;16.212;2024-01-07T15:00:06;97179.16;;;-1.78;100.00
15674;BME280;7937;48.090;16.212;2024-01-07T15:03:08;97177.44;;;-1.86;100.00
15674;BME280;7937;48.090;16.212;2024-01-07T15:06:10;97178.81;;;-1.75;100.00
15674;BME280;7937;48.090;16.212;2024-01-07T15:09:13;97184.75;;;-1.82;100.00
15674;BME280;7937;48.090;16.212;2024-01-07T15:12:16;97180.72;;;-1.92;100.00
15674;BME280;7937;48.090;16.212;2024-01-07T15:15:18;97176.78;;;-1.88;100.00
15674;BME280;7937;48.090;16.212;2024-01-07T15:18:22;97185.78;;;-1.91;100.00
15674;BME280;7937;48.090;16.212;2024-01-07T15:21:25;97179.59;;;-1.90;100.00
15674;BME280;7937;48.090;16.212;2024-01-07T15:24:27;97195.53;;;-1.85;100.00
15674;BME280;7937;48.090;16.212;2024-01-07T15:27:29;97189.56;;;-1.93;100.00
15674;BME280;7937;48.090;16.212;2024-01-07T15:30:32;97193.34;;;-1.96;100.00
15674;BME280;7937;48.090;16.212;2024-01-07T15:33:35;97194.94;;;-1.72;100.00
15674;BME280;7937;48.090;16.212;2024-01-07T15:36:38;97187.88;;;-1.86;100.00
15674;BME280;7937;48.090;16.212;2024-01-07T15:39:41;97201.59;;;-1.92;100.00
15674;BME280;7937;48.090;16.212;2024-01-07T15:42:43;97206.16;;;-1.86;100.00
15674;BME280;7937;48.090;16.212;2024-01-07T15:45:46;97197.09;;;-1.98;100.00
15674;BME280;7937;48.090;16.212;2024-01-07T15:48:48;97219.88;;;-1.92;100.00
15674;BME280;7937;48.090;16.212;2024-01-07T15:51:50;97223.84;;;-1.96;100.00
15674;BME280;7937;48.090;16.212;2024-01-07T15:54:53;97212.72;;;-1.90;100.00
15674;BME280;7937;48.090;16.212;2024-01-07T15:57:56;97237.25;;;-1.76;100.00
15674;BME280;7937;48.090;16.212;2024-01-07T16:00:59;97214.09;;;-2.02;100.00